createdAt,value
2019-04-03T00:01:08.090Z,11.00
2019-04-03T00:03:36.891Z,11.10
2019-04-03T00:06:06.111Z,11.00
2019-04-03T00:08:36.678Z,11.00
2019-04-03T00:11:08.583Z,11.00
2019-04-03T00:13:36.315Z,11.00
2019-04-03T00:16:05.206Z,11.00
2019-04-03T00:18:34.419Z,10.90
2019-04-03T00:21:03.337Z,10.80
2019-04-03T00:23:32.299Z,10.80
2019-04-03T00:26:01.123Z,10.60
2019-04-03T00:28:30.032Z,10.60
2019-04-03T00:30:58.828Z,10.60
2019-04-03T00:33:27.814Z,10.60
2019-04-03T00:35:56.663Z,10.60
2019-04-03T00:38:25.491Z,10.60
2019-04-03T00:40:54.949Z,10.60
2019-04-03T00:43:24.689Z,10.50
2019-04-03T00:45:55.110Z,10.50
2019-04-03T00:48:25.827Z,10.50
2019-04-03T00:50:57.300Z,10.40
2019-04-03T00:53:27.471Z,10.40
2019-04-03T00:55:57.052Z,10.40
2019-04-03T00:58:37.835Z,10.30
2019-04-03T01:01:08.547Z,10.30
2019-04-03T01:03:37.798Z,10.20
2019-04-03T01:06:07.208Z,10.20
2019-04-03T01:08:36.146Z,10.20
2019-04-03T01:11:05.497Z,10.20
2019-04-03T01:13:34.581Z,10.10
2019-04-03T01:16:03.615Z,10.00
2019-04-03T01:18:34.378Z,9.80
2019-04-03T01:21:04.703Z,9.70
2019-04-03T01:23:34.096Z,9.60
2019-04-03T01:26:03.593Z,9.50
2019-04-03T01:28:32.613Z,9.50
2019-04-03T01:31:01.547Z,9.40
2019-04-03T01:33:30.742Z,9.30
2019-04-03T01:35:59.686Z,9.30
2019-04-03T01:38:28.472Z,9.30
2019-04-03T01:40:57.279Z,9.30
2019-04-03T01:43:26.259Z,9.30
2019-04-03T01:45:56.986Z,9.30
2019-04-03T01:48:28.108Z,9.30
2019-04-03T01:50:57.762Z,9.30
2019-04-03T01:53:26.882Z,9.20
2019-04-03T01:55:55.876Z,9.20
2019-04-03T01:58:24.794Z,9.20
2019-04-03T02:00:53.734Z,9.20
2019-04-03T02:03:22.702Z,9.20
2019-04-03T02:05:51.551Z,9.20
2019-04-03T02:08:20.602Z,9.20
2019-04-03T02:10:49.643Z,9.20
2019-04-03T02:13:21.077Z,9.10
2019-04-03T02:15:52.217Z,9.20
2019-04-03T02:18:20.344Z,9.10
2019-04-03T02:20:49.260Z,9.00
2019-04-03T02:23:18.330Z,9.00
2019-04-03T02:25:47.253Z,8.90
2019-04-03T02:28:16.332Z,8.90
2019-04-03T02:30:46.708Z,8.90
2019-04-03T02:33:15.836Z,8.90
2019-04-03T02:35:45.103Z,8.80
2019-04-03T02:38:14.000Z,8.80
2019-04-03T02:40:42.871Z,8.70
2019-04-03T02:43:14.405Z,8.70
2019-04-03T02:45:42.460Z,8.60
2019-04-03T02:48:11.273Z,8.60
2019-04-03T02:50:40.506Z,8.60
2019-04-03T02:53:10.009Z,8.60
2019-04-03T02:55:40.602Z,8.60
2019-04-03T02:58:10.033Z,8.60
2019-04-03T03:00:38.977Z,8.60
2019-04-03T03:03:08.444Z,8.70
2019-04-03T03:05:37.676Z,8.70
2019-04-03T03:08:09.141Z,8.80
2019-04-03T03:10:37.778Z,8.90
2019-04-03T03:13:07.175Z,9.00
2019-04-03T03:15:37.020Z,9.10
2019-04-03T03:18:06.038Z,9.20
2019-04-03T03:20:39.206Z,9.20
2019-04-03T03:23:07.337Z,9.30
2019-04-03T03:25:36.594Z,9.40
2019-04-03T03:28:05.657Z,9.40
2019-04-03T03:30:44.115Z,9.40
2019-04-03T03:33:24.643Z,9.40
2019-04-03T03:35:41.425Z,9.40
2019-04-03T03:38:08.193Z,9.40
2019-04-03T03:40:37.763Z,9.50
2019-04-03T03:43:06.964Z,9.60
2019-04-03T03:45:36.444Z,9.60
2019-04-03T03:48:08.178Z,9.60
2019-04-03T03:50:37.883Z,9.60
2019-04-03T03:53:11.404Z,9.50
2019-04-03T03:55:39.015Z,9.50
2019-04-03T03:58:10.884Z,9.50
2019-04-03T04:00:39.215Z,9.50
2019-04-03T04:03:10.067Z,9.50
2019-04-03T04:05:39.400Z,9.60
2019-04-03T04:08:10.491Z,9.60
2019-04-03T04:10:39.346Z,9.50
2019-04-03T04:13:13.577Z,9.40
2019-04-03T04:15:39.623Z,9.50
2019-04-03T04:18:08.569Z,9.50
2019-04-03T04:20:39.196Z,9.60
2019-04-03T04:23:08.579Z,9.50
2019-04-03T04:25:37.784Z,9.50
2019-04-03T04:28:09.172Z,9.60
2019-04-03T04:30:37.931Z,9.60
2019-04-03T04:33:06.800Z,9.60
2019-04-03T04:35:43.275Z,9.50
2019-04-03T04:38:12.134Z,9.40
2019-04-03T04:40:41.175Z,9.40
2019-04-03T04:43:33.248Z,9.30
2019-04-03T04:45:42.619Z,9.30
2019-04-03T04:48:11.370Z,9.30
2019-04-03T04:50:40.122Z,9.50
2019-04-03T04:53:09.325Z,9.50
2019-04-03T04:55:38.895Z,9.50
2019-04-03T04:58:07.739Z,9.50
2019-04-03T05:00:36.566Z,9.60
2019-04-03T05:03:05.566Z,9.50
2019-04-03T05:05:34.562Z,9.50
2019-04-03T05:08:03.473Z,9.50
2019-04-03T05:10:32.410Z,9.60
2019-04-03T05:13:01.228Z,9.60
2019-04-03T05:15:30.058Z,9.60
2019-04-03T05:17:59.009Z,9.50
2019-04-03T05:20:28.031Z,9.50
2019-04-03T05:22:57.062Z,9.50
2019-04-03T05:25:26.083Z,9.50
2019-04-03T05:27:55.002Z,9.50
2019-04-03T05:30:31.076Z,9.40
2019-04-03T05:33:00.303Z,9.40
2019-04-03T05:35:29.230Z,9.50
2019-04-03T05:37:58.095Z,9.70
2019-04-03T05:40:27.092Z,9.80
2019-04-03T05:42:56.201Z,9.80
2019-04-03T05:45:25.070Z,9.80
2019-04-03T05:47:53.882Z,9.80
2019-04-03T05:50:24.360Z,9.80
2019-04-03T05:52:54.386Z,9.90
2019-04-03T05:55:23.430Z,10.00
2019-04-03T05:57:52.298Z,10.10
2019-04-03T06:00:21.537Z,10.30
2019-04-03T06:02:52.667Z,10.40
2019-04-03T06:05:21.351Z,10.40
2019-04-03T06:07:51.992Z,10.50
2019-04-03T06:10:21.472Z,10.50
2019-04-03T06:12:50.735Z,10.60
2019-04-03T06:15:21.820Z,10.70
2019-04-03T06:17:51.229Z,10.80
2019-04-03T06:20:20.798Z,10.80
2019-04-03T06:22:50.292Z,10.90
2019-04-03T06:25:19.669Z,10.90
2019-04-03T06:27:48.595Z,11.00
2019-04-03T06:30:18.034Z,11.10
2019-04-03T06:32:47.251Z,11.30
2019-04-03T06:35:16.212Z,11.50
2019-04-03T06:37:45.149Z,11.70
2019-04-03T06:40:14.426Z,12.00
2019-04-03T06:42:44.881Z,12.00
2019-04-03T06:45:15.724Z,12.10
2019-04-03T06:47:44.471Z,12.00
2019-04-03T06:50:13.933Z,12.00
2019-04-03T06:52:44.143Z,12.10
2019-04-03T06:55:13.035Z,12.10
2019-04-03T06:57:41.968Z,12.20
2019-04-03T07:00:11.329Z,12.30
2019-04-03T07:02:40.263Z,12.40
2019-04-03T07:05:10.255Z,12.40
2019-04-03T07:07:39.860Z,12.50
2019-04-03T07:10:09.724Z,12.50
2019-04-03T07:12:38.879Z,12.60
2019-04-03T07:15:08.067Z,12.70
2019-04-03T07:17:37.108Z,12.90
2019-04-03T07:20:13.659Z,13.10
2019-04-03T07:22:36.938Z,13.30
2019-04-03T07:25:06.679Z,13.40
2019-04-03T07:27:37.159Z,13.50
2019-04-03T07:30:07.596Z,13.70
2019-04-03T07:32:36.897Z,13.90
2019-04-03T07:35:09.737Z,14.10
2019-04-03T07:37:37.339Z,14.50
2019-04-03T07:40:07.206Z,14.90
2019-04-03T07:42:36.185Z,15.10
2019-04-03T07:45:06.758Z,15.60
2019-04-03T07:47:35.907Z,16.00
2019-04-03T07:50:10.193Z,16.30
2019-04-03T07:52:38.177Z,16.40
2019-04-03T07:55:07.517Z,16.30
2019-04-03T07:57:37.221Z,16.50
2019-04-03T08:00:08.147Z,16.80
2019-04-03T08:02:37.195Z,17.10
2019-04-03T08:05:07.004Z,17.50
2019-04-03T08:07:35.988Z,17.70
2019-04-03T08:10:05.667Z,17.90
2019-04-03T08:12:35.849Z,18.30
2019-04-03T08:15:06.282Z,18.70
2019-04-03T08:17:35.262Z,18.90
2019-04-03T08:20:04.759Z,18.90
2019-04-03T08:22:33.999Z,19.00
2019-04-03T08:25:03.206Z,19.30
2019-04-03T08:27:32.171Z,19.40
2019-04-03T08:30:01.199Z,19.90
2019-04-03T08:32:30.139Z,20.20
2019-04-03T08:34:59.028Z,20.50
2019-04-03T08:37:31.981Z,20.60
2019-04-03T08:40:00.119Z,20.70
2019-04-03T08:42:32.175Z,21.10
2019-04-03T08:44:59.634Z,21.30
2019-04-03T08:47:28.661Z,21.50
2019-04-03T08:49:58.998Z,21.80
2019-04-03T08:52:28.529Z,22.10
2019-04-03T08:54:57.346Z,22.60
2019-04-03T08:57:26.142Z,23.00
2019-04-03T08:59:54.934Z,23.40
2019-04-03T09:02:24.035Z,23.80
2019-04-03T09:04:53.270Z,24.00
2019-04-03T09:07:24.620Z,24.00
2019-04-03T09:09:53.179Z,23.90
2019-04-03T09:12:22.234Z,24.10
2019-04-03T09:14:51.013Z,24.20
2019-04-03T09:17:19.970Z,23.90
2019-04-03T09:19:48.774Z,24.20
2019-04-03T09:22:19.171Z,24.20
2019-04-03T09:24:48.119Z,24.30
2019-04-03T09:27:17.207Z,24.00
2019-04-03T09:29:46.394Z,23.50
2019-04-03T09:32:15.321Z,23.20
2019-04-03T09:34:44.735Z,23.60
2019-04-03T09:37:13.663Z,24.00
2019-04-03T09:39:44.854Z,24.20
2019-04-03T09:42:13.626Z,24.50
2019-04-03T09:44:42.430Z,24.80
2019-04-03T09:47:11.275Z,25.20
2019-04-03T09:49:42.877Z,24.90
2019-04-03T09:52:11.043Z,25.50
2019-04-03T09:54:39.952Z,25.40
2019-04-03T09:57:08.816Z,25.60
2019-04-03T09:59:38.476Z,26.00
2019-04-03T10:02:07.910Z,26.40
2019-04-03T10:04:37.136Z,26.10
2019-04-03T10:07:06.132Z,26.00
2019-04-03T10:09:38.497Z,26.10
2019-04-03T10:12:06.874Z,26.60
2019-04-03T10:14:35.921Z,26.10
2019-04-03T10:17:06.147Z,25.80
2019-04-03T10:19:35.800Z,26.00
2019-04-03T10:22:05.047Z,26.40
2019-04-03T10:24:34.003Z,26.50
2019-04-03T10:27:02.854Z,27.10
2019-04-03T10:29:32.157Z,27.20
2019-04-03T10:32:01.274Z,27.20
2019-04-03T10:34:30.384Z,27.60
2019-04-03T10:36:59.339Z,27.10
2019-04-03T10:39:28.725Z,27.00
2019-04-03T10:41:59.739Z,27.10
2019-04-03T10:44:28.604Z,26.50
2019-04-03T10:46:57.717Z,26.50
2019-04-03T10:49:26.549Z,26.00
2019-04-03T10:51:55.414Z,25.90
2019-04-03T10:54:25.085Z,26.30
2019-04-03T10:56:54.572Z,26.20
2019-04-03T10:59:23.706Z,26.40
2019-04-03T11:01:52.819Z,26.70
2019-04-03T11:04:21.784Z,27.30
2019-04-03T11:06:50.605Z,27.60
2019-04-03T11:09:19.499Z,27.80
2019-04-03T11:11:48.574Z,27.90
2019-04-03T11:14:17.436Z,27.60
2019-04-03T11:16:47.294Z,27.90
2019-04-03T11:19:19.015Z,28.30
2019-04-03T11:21:46.810Z,28.80
2019-04-03T11:24:15.653Z,29.50
2019-04-03T11:26:44.537Z,28.50
2019-04-03T11:29:13.832Z,26.70
2019-04-03T11:31:43.347Z,26.40
2019-04-03T11:34:12.560Z,27.30
2019-04-03T11:36:41.745Z,28.00
2019-04-03T11:39:14.813Z,29.00
2019-04-03T11:41:41.354Z,29.60
2019-04-03T11:44:10.485Z,29.40
2019-04-03T11:46:40.135Z,29.10
2019-04-03T11:49:09.034Z,29.30
2019-04-03T11:51:37.959Z,29.70
2019-04-03T11:54:08.272Z,29.90
2019-04-03T11:56:37.506Z,30.30
2019-04-03T11:59:06.355Z,30.50
2019-04-03T12:01:35.266Z,30.40
2019-04-03T12:04:04.241Z,28.70
2019-04-03T12:06:33.242Z,28.90
2019-04-03T12:09:02.498Z,28.50
2019-04-03T12:11:31.761Z,28.50
2019-04-03T12:14:00.694Z,29.00
2019-04-03T12:16:29.581Z,29.80
2019-04-03T12:18:58.461Z,29.00
2019-04-03T12:21:27.303Z,28.10
2019-04-03T12:23:58.516Z,27.80
2019-04-03T12:26:27.016Z,27.60
2019-04-03T12:28:55.847Z,27.90
2019-04-03T12:31:24.663Z,28.30
2019-04-03T12:33:59.437Z,28.10
2019-04-03T12:36:26.842Z,27.40
2019-04-03T12:38:56.173Z,27.40
2019-04-03T12:41:27.215Z,28.30
2019-04-03T12:43:56.186Z,28.50
2019-04-03T12:46:37.794Z,27.60
2019-04-03T12:49:08.761Z,26.40
2019-04-03T12:51:37.750Z,26.80
2019-04-03T12:54:06.645Z,26.50
2019-04-03T12:56:36.001Z,26.90
2019-04-03T12:59:07.462Z,27.00
2019-04-03T13:01:35.662Z,27.70
2019-04-03T13:04:04.766Z,28.40
2019-04-03T13:06:33.638Z,28.40
2019-04-03T13:09:02.889Z,28.30
2019-04-03T13:11:33.541Z,27.10
2019-04-03T13:14:02.612Z,27.40
2019-04-03T13:16:31.534Z,27.80
2019-04-03T13:19:00.547Z,27.70
2019-04-03T13:21:29.689Z,27.70
2019-04-03T13:23:58.688Z,26.50
2019-04-03T13:26:27.506Z,26.10
2019-04-03T13:28:56.518Z,25.50
2019-04-03T13:31:25.762Z,24.30
2019-04-03T13:33:54.647Z,24.50
2019-04-03T13:36:24.500Z,25.10
2019-04-03T13:38:53.942Z,25.60
2019-04-03T13:41:22.734Z,26.30
2019-04-03T13:43:53.825Z,26.80
2019-04-03T13:46:23.471Z,27.40
2019-04-03T13:48:52.876Z,26.30
2019-04-03T13:51:22.332Z,25.90
2019-04-03T13:53:53.395Z,25.90
2019-04-03T13:56:23.754Z,25.50
2019-04-03T13:58:54.142Z,25.30
2019-04-03T14:01:23.094Z,25.90
2019-04-03T14:03:52.209Z,25.90
2019-04-03T14:06:21.143Z,25.30
2019-04-03T14:08:50.680Z,25.30
2019-04-03T14:11:19.477Z,25.00
2019-04-03T14:13:48.374Z,24.70
2019-04-03T14:16:21.580Z,25.10
2019-04-03T14:18:49.941Z,25.60
2019-04-03T14:21:18.853Z,25.60
2019-04-03T14:23:48.099Z,24.90
2019-04-03T14:26:17.173Z,23.80
2019-04-03T14:28:46.376Z,23.60
2019-04-03T14:31:17.014Z,23.90
2019-04-03T14:33:47.005Z,23.90
2019-04-03T14:36:18.456Z,23.80
2019-04-03T14:38:46.944Z,23.30
2019-04-03T14:41:18.599Z,23.20
2019-04-03T14:43:46.677Z,23.00
2019-04-03T14:46:17.630Z,22.80
2019-04-03T14:48:46.183Z,22.90
2019-04-03T14:51:15.020Z,23.20
2019-04-03T14:53:43.856Z,23.00
2019-04-03T14:56:13.059Z,22.80
2019-04-03T14:58:41.833Z,23.00
2019-04-03T15:01:10.906Z,23.30
2019-04-03T15:03:40.304Z,22.90
2019-04-03T15:06:09.152Z,22.80
2019-04-03T15:08:38.300Z,22.00
2019-04-03T15:11:07.693Z,22.10
2019-04-03T15:13:36.734Z,22.30
2019-04-03T15:16:05.837Z,22.10
2019-04-03T15:18:34.958Z,21.70
2019-04-03T15:21:04.203Z,21.70
2019-04-03T15:23:35.790Z,21.60
2019-04-03T15:26:03.719Z,21.10
2019-04-03T15:28:32.572Z,20.90
2019-04-03T15:31:01.555Z,21.00
2019-04-03T15:33:30.771Z,21.00
2019-04-03T15:36:00.275Z,21.00
2019-04-03T15:38:29.282Z,21.00
2019-04-03T15:40:59.309Z,21.10
2019-04-03T15:43:28.652Z,21.10
2019-04-03T15:45:58.086Z,21.10
2019-04-03T15:48:27.816Z,21.00
2019-04-03T15:50:57.706Z,20.80
2019-04-03T15:53:26.988Z,21.10
2019-04-03T15:55:56.002Z,21.10
2019-04-03T15:58:26.639Z,21.00
2019-04-03T16:00:56.386Z,21.20
2019-04-03T16:03:25.188Z,21.30
2019-04-03T16:05:54.296Z,21.20
2019-04-03T16:08:23.356Z,21.10
2019-04-03T16:10:52.183Z,21.00
2019-04-03T16:13:22.100Z,21.00
2019-04-03T16:15:51.147Z,20.70
2019-04-03T16:18:21.238Z,20.50
2019-04-03T16:20:51.237Z,20.30
2019-04-03T16:23:20.423Z,20.30
2019-04-03T16:25:49.823Z,20.30
2019-04-03T16:28:19.537Z,20.20
2019-04-03T16:30:52.277Z,20.20
2019-04-03T16:33:23.555Z,20.10
2019-04-03T16:35:49.605Z,20.00
2019-04-03T16:38:18.393Z,19.90
2019-04-03T16:40:47.534Z,19.70
2019-04-03T16:43:16.618Z,19.60
2019-04-03T16:45:45.501Z,19.50
2019-04-03T16:48:16.664Z,19.50
2019-04-03T16:50:45.084Z,19.40
2019-04-03T16:53:14.090Z,19.30
2019-04-03T16:55:42.890Z,19.20
2019-04-03T16:58:12.441Z,19.20
2019-04-03T17:00:42.649Z,19.20
2019-04-03T17:03:11.851Z,19.10
2019-04-03T17:05:41.497Z,19.00
2019-04-03T17:08:11.315Z,18.90
2019-04-03T17:10:40.723Z,18.80
2019-04-03T17:13:10.034Z,18.80
2019-04-03T17:15:39.058Z,18.80
2019-04-03T17:18:10.543Z,18.70
2019-04-03T17:20:38.522Z,18.60
2019-04-03T17:23:07.791Z,18.50
2019-04-03T17:25:46.929Z,18.40
2019-04-03T17:28:09.964Z,18.40
2019-04-03T17:30:38.040Z,18.30
2019-04-03T17:33:06.846Z,18.20
2019-04-03T17:35:36.457Z,18.10
2019-04-03T17:38:05.538Z,18.00
2019-04-03T17:40:36.335Z,18.00
2019-04-03T17:43:05.043Z,17.90
2019-04-03T17:45:33.938Z,17.90
2019-04-03T17:48:02.805Z,17.80
2019-04-03T17:50:31.571Z,17.80
2019-04-03T17:53:01.025Z,17.70
2019-04-03T17:55:30.143Z,17.60
2019-04-03T17:57:59.046Z,17.60
2019-04-03T18:00:28.142Z,17.50
2019-04-03T18:02:57.090Z,17.40
2019-04-03T18:05:26.228Z,17.40
2019-04-03T18:07:58.619Z,17.30
2019-04-03T18:10:25.943Z,17.20
2019-04-03T18:12:54.990Z,17.10
2019-04-03T18:15:23.902Z,17.10
2019-04-03T18:17:52.766Z,17.10
2019-04-03T18:20:26.274Z,17.10
2019-04-03T18:22:57.301Z,17.00
2019-04-03T18:25:32.797Z,17.00
2019-04-03T18:28:04.854Z,17.00
2019-04-03T18:30:48.199Z,16.90
2019-04-03T18:33:17.608Z,16.80
2019-04-03T18:35:46.630Z,16.90
2019-04-03T18:38:15.748Z,16.80
2019-04-03T18:40:46.345Z,16.70
2019-04-03T18:43:15.133Z,16.70
2019-04-03T18:45:44.076Z,16.60
2019-04-03T18:48:12.879Z,16.50
2019-04-03T18:50:41.742Z,16.50
2019-04-03T18:53:10.502Z,16.40
2019-04-03T18:55:39.369Z,16.30
2019-04-03T18:58:08.242Z,16.30
2019-04-03T19:00:37.192Z,16.20
2019-04-03T19:03:06.651Z,16.10
2019-04-03T19:05:42.833Z,16.00
2019-04-03T19:08:18.794Z,15.90
2019-04-03T19:10:47.758Z,15.80
2019-04-03T19:13:16.702Z,15.80
2019-04-03T19:15:45.588Z,15.80
2019-04-03T19:19:07.415Z,15.70
2019-04-03T19:21:28.687Z,15.70
2019-04-03T19:23:57.954Z,15.50
2019-04-03T19:26:26.777Z,15.50
2019-04-03T19:28:55.611Z,15.40
2019-04-03T19:31:24.629Z,15.10
2019-04-03T19:33:53.630Z,14.50
2019-04-03T19:36:25.899Z,14.00
2019-04-03T19:38:54.903Z,13.60
2019-04-03T19:41:23.878Z,13.10
2019-04-03T19:43:52.711Z,12.90
2019-04-03T19:46:22.771Z,12.70
2019-04-03T19:48:52.266Z,12.40
2019-04-03T19:51:21.068Z,12.10
2019-04-03T19:53:59.327Z,11.70
2019-04-03T19:56:20.692Z,11.30
2019-04-03T19:58:49.569Z,11.00
2019-04-03T20:01:18.426Z,10.70
2019-04-03T20:03:47.355Z,10.30
2019-04-03T20:06:16.231Z,10.10
2019-04-03T20:08:45.126Z,9.90
2019-04-03T20:11:14.007Z,9.70
2019-04-03T20:13:42.850Z,9.30
2019-04-03T20:16:11.712Z,9.00
2019-04-03T20:18:40.481Z,8.90
2019-04-03T20:21:09.954Z,8.70
2019-04-03T20:23:41.603Z,8.60
2019-04-03T20:26:09.248Z,8.40
2019-04-03T20:28:38.372Z,8.30
2019-04-03T20:31:07.318Z,8.10
2019-04-03T20:33:36.158Z,8.10
2019-04-03T20:36:05.033Z,8.00
2019-04-03T20:38:34.226Z,8.00
2019-04-03T20:41:03.752Z,7.90
2019-04-03T20:43:32.936Z,7.80
2019-04-03T20:46:02.017Z,7.80
2019-04-03T20:48:30.817Z,7.70
2019-04-03T20:50:59.738Z,7.70
2019-04-03T20:53:28.702Z,7.70
2019-04-03T20:55:58.030Z,7.70
2019-04-03T20:58:27.570Z,7.70
2019-04-03T21:01:05.988Z,7.80
2019-04-03T21:03:27.085Z,7.80
2019-04-03T21:05:55.984Z,7.70
2019-04-03T21:08:26.678Z,7.60
2019-04-03T21:10:55.434Z,7.50
2019-04-03T21:13:24.217Z,7.40
2019-04-03T21:15:52.984Z,7.30
2019-04-03T21:18:21.784Z,7.30
2019-04-03T21:20:51.089Z,7.20
2019-04-03T21:23:20.246Z,7.10
2019-04-03T21:25:49.031Z,7.10
2019-04-03T21:28:17.918Z,7.10
2019-04-03T21:30:46.785Z,7.00
2019-04-03T21:33:17.333Z,7.00
2019-04-03T21:35:46.482Z,6.90
2019-04-03T21:38:16.443Z,6.90
2019-04-03T21:40:46.974Z,6.90
2019-04-03T21:43:16.306Z,6.80
2019-04-03T21:45:45.111Z,6.80
2019-04-03T21:48:14.366Z,6.80
2019-04-03T21:50:43.194Z,6.80
2019-04-03T21:53:12.219Z,6.70
2019-04-03T21:55:41.015Z,6.70
2019-04-03T21:58:10.074Z,6.60
2019-04-03T22:01:19.058Z,6.60
2019-04-03T22:03:50.563Z,6.50
2019-04-03T22:06:18.969Z,6.50
2019-04-03T22:08:47.927Z,6.50
2019-04-03T22:11:16.995Z,6.50
2019-04-03T22:13:46.418Z,6.50
2019-04-03T22:16:15.384Z,6.50
2019-04-03T22:18:44.295Z,6.50
2019-04-03T22:21:13.206Z,6.50
2019-04-03T22:23:42.074Z,6.50
2019-04-03T22:26:10.896Z,6.50
2019-04-03T22:28:39.670Z,6.40
2019-04-03T22:31:08.469Z,6.40
2019-04-03T22:33:37.238Z,6.40
2019-04-03T22:36:06.067Z,6.30
2019-04-03T22:38:36.938Z,6.30
2019-04-03T22:41:05.526Z,6.30
2019-04-03T22:43:34.326Z,6.30
2019-04-03T22:46:03.207Z,6.20
2019-04-03T22:48:31.996Z,6.20
2019-04-03T22:51:01.071Z,6.20
2019-04-03T22:53:30.210Z,6.10
2019-04-03T22:55:58.971Z,6.10
2019-04-03T22:58:27.821Z,6.10
2019-04-03T23:00:57.226Z,6.20
2019-04-03T23:03:27.512Z,6.20
2019-04-03T23:05:56.376Z,6.10
2019-04-03T23:08:25.295Z,6.10
2019-04-03T23:10:54.071Z,6.10
2019-04-03T23:13:22.932Z,6.10
2019-04-03T23:15:51.767Z,6.10
2019-04-03T23:18:20.650Z,6.10
2019-04-03T23:20:52.638Z,5.90
2019-04-03T23:23:20.582Z,5.90
2019-04-03T23:25:49.734Z,6.00
2019-04-03T23:28:19.394Z,5.90
2019-04-03T23:30:48.291Z,5.90
2019-04-03T23:33:17.629Z,5.90
2019-04-03T23:35:46.626Z,5.90
2019-04-03T23:38:15.428Z,5.90
2019-04-03T23:40:44.228Z,5.80
2019-04-03T23:43:13.090Z,5.70
2019-04-03T23:45:43.519Z,5.70
2019-04-03T23:48:12.663Z,5.70
2019-04-03T23:50:41.536Z,5.70
2019-04-03T23:53:10.410Z,5.80
2019-04-03T23:55:39.282Z,5.70
2019-04-03T23:58:09.056Z,5.60
